Terminal Aerodrome Forecast
Issued by NWS Grand Forks, ND

Home | Current Version | Previous Version | Text Only | Print | Product List | Glossary Off
Versions: 1 2 3 4 5 6 7 8 9 10 11 12 13 14 15 16 17 18 19 20 21 22 23 24

000
FTUS43 KFGF 230520
TAFGFK
TAF
KGFK 230520Z 2306/2406 30012KT P6SM TSRA BKN080CB
     FM230800 19007KT P6SM VCTS OVC090CB
     FM231100 21007KT P6SM OVC070
     FM231400 26007KT P6SM BKN080
     FM232300 24009KT P6SM SCT250
     FM240000 21006KT P6SM SCT250=

USA.gov is the U.S. government's official web portal to all federal, state and local government web resources and services.